sensor_id;sensor_type;location;lat;lon;timestamp;P1;durP1;ratioP1;P2;durP2;ratioP2
36377;SDS011;22402;42.746;23.606;2023-07-02T00:01:27;8.20;;;6.10;;
36377;SDS011;22402;42.746;23.606;2023-07-02T00:03:52;8.70;;;5.90;;
36377;SDS011;22402;42.746;23.606;2023-07-02T00:06:18;10.63;;;6.63;;
36377;SDS011;22402;42.746;23.606;2023-07-02T00:08:43;7.60;;;5.50;;
36377;SDS011;22402;42.746;23.606;2023-07-02T00:11:09;17.60;;;6.20;;
36377;SDS011;22402;42.746;23.606;2023-07-02T00:13:37;9.90;;;5.47;;
36377;SDS011;22402;42.746;23.606;2023-07-02T00:16:04;9.10;;;6.10;;
36377;SDS011;22402;42.746;23.606;2023-07-02T00:18:29;12.07;;;6.47;;
36377;SDS011;22402;42.746;23.606;2023-07-02T00:20:59;9.97;;;5.80;;
36377;SDS011;22402;42.746;23.606;2023-07-02T00:23:25;9.63;;;6.27;;
36377;SDS011;22402;42.746;23.606;2023-07-02T00:25:51;10.63;;;6.10;;
36377;SDS011;22402;42.746;23.606;2023-07-02T00:28:16;10.80;;;6.53;;
36377;SDS011;22402;42.746;23.606;2023-07-02T00:30:42;9.10;;;6.03;;
36377;SDS011;22402;42.746;23.606;2023-07-02T00:33:08;9.57;;;6.43;;
36377;SDS011;22402;42.746;23.606;2023-07-02T00:35:33;8.23;;;6.37;;
36377;SDS011;22402;42.746;23.606;2023-07-02T00:37:59;16.13;;;6.10;;
36377;SDS011;22402;42.746;23.606;2023-07-02T00:40:26;7.40;;;5.83;;
36377;SDS011;22402;42.746;23.606;2023-07-02T00:42:52;8.10;;;6.13;;
36377;SDS011;22402;42.746;23.606;2023-07-02T00:45:17;12.70;;;5.77;;
36377;SDS011;22402;42.746;23.606;2023-07-02T00:47:43;7.43;;;5.73;;
36377;SDS011;22402;42.746;23.606;2023-07-02T00:50:10;8.73;;;5.90;;
36377;SDS011;22402;42.746;23.606;2023-07-02T00:52:36;7.73;;;5.73;;
36377;SDS011;22402;42.746;23.606;2023-07-02T00:55:02;12.90;;;6.63;;
36377;SDS011;22402;42.746;23.606;2023-07-02T00:57:27;16.13;;;7.07;;
36377;SDS011;22402;42.746;23.606;2023-07-02T00:59:55;12.03;;;6.50;;
36377;SDS011;22402;42.746;23.606;2023-07-02T01:02:26;8.80;;;6.30;;
36377;SDS011;22402;42.746;23.606;2023-07-02T01:04:54;9.10;;;5.97;;
36377;SDS011;22402;42.746;23.606;2023-07-02T01:07:23;9.13;;;6.67;;
36377;SDS011;22402;42.746;23.606;2023-07-02T01:09:49;10.53;;;6.07;;
36377;SDS011;22402;42.746;23.606;2023-07-02T01:12:14;14.20;;;7.10;;
36377;SDS011;22402;42.746;23.606;2023-07-02T01:14:44;9.63;;;6.17;;
36377;SDS011;22402;42.746;23.606;2023-07-02T01:17:17;15.73;;;6.20;;
36377;SDS011;22402;42.746;23.606;2023-07-02T01:19:52;8.50;;;6.70;;
36377;SDS011;22402;42.746;23.606;2023-07-02T01:22:19;16.50;;;7.70;;
36377;SDS011;22402;42.746;23.606;2023-07-02T01:24:49;10.60;;;6.83;;
36377;SDS011;22402;42.746;23.606;2023-07-02T01:27:15;8.63;;;5.80;;
36377;SDS011;22402;42.746;23.606;2023-07-02T01:29:42;8.90;;;7.03;;
36377;SDS011;22402;42.746;23.606;2023-07-02T01:32:09;12.60;;;7.70;;
36377;SDS011;22402;42.746;23.606;2023-07-02T01:34:35;12.87;;;8.10;;
36377;SDS011;22402;42.746;23.606;2023-07-02T01:37:01;10.07;;;7.63;;
36377;SDS011;22402;42.746;23.606;2023-07-02T01:39:28;11.63;;;7.83;;
36377;SDS011;22402;42.746;23.606;2023-07-02T01:41:54;10.43;;;7.70;;
36377;SDS011;22402;42.746;23.606;2023-07-02T01:44:21;9.97;;;7.90;;
36377;SDS011;22402;42.746;23.606;2023-07-02T01:46:47;7.80;;;6.80;;
36377;SDS011;22402;42.746;23.606;2023-07-02T01:49:14;12.97;;;7.60;;
36377;SDS011;22402;42.746;23.606;2023-07-02T01:51:49;10.50;;;7.80;;
36377;SDS011;22402;42.746;23.606;2023-07-02T01:54:19;10.00;;;6.97;;
36377;SDS011;22402;42.746;23.606;2023-07-02T01:56:46;15.43;;;7.60;;
36377;SDS011;22402;42.746;23.606;2023-07-02T01:59:12;9.23;;;8.23;;
36377;SDS011;22402;42.746;23.606;2023-07-02T02:01:39;12.07;;;8.70;;
36377;SDS011;22402;42.746;23.606;2023-07-02T02:04:07;9.47;;;7.50;;
36377;SDS011;22402;42.746;23.606;2023-07-02T02:06:33;12.20;;;6.83;;
36377;SDS011;22402;42.746;23.606;2023-07-02T02:08:59;10.33;;;7.43;;
36377;SDS011;22402;42.746;23.606;2023-07-02T02:11:25;10.17;;;7.30;;
36377;SDS011;22402;42.746;23.606;2023-07-02T02:13:51;11.77;;;7.43;;
36377;SDS011;22402;42.746;23.606;2023-07-02T02:16:17;9.57;;;6.17;;
36377;SDS011;22402;42.746;23.606;2023-07-02T02:18:42;9.13;;;6.50;;
36377;SDS011;22402;42.746;23.606;2023-07-02T02:21:08;9.00;;;6.13;;
36377;SDS011;22402;42.746;23.606;2023-07-02T02:23:34;9.93;;;6.70;;
36377;SDS011;22402;42.746;23.606;2023-07-02T02:25:59;9.70;;;6.50;;
36377;SDS011;22402;42.746;23.606;2023-07-02T02:28:25;10.30;;;6.80;;
36377;SDS011;22402;42.746;23.606;2023-07-02T02:30:50;13.07;;;6.53;;
36377;SDS011;22402;42.746;23.606;2023-07-02T02:33:16;8.87;;;6.77;;
36377;SDS011;22402;42.746;23.606;2023-07-02T02:35:41;10.37;;;7.33;;
36377;SDS011;22402;42.746;23.606;2023-07-02T02:38:07;11.13;;;7.10;;
36377;SDS011;22402;42.746;23.606;2023-07-02T02:40:33;10.60;;;7.07;;
36377;SDS011;22402;42.746;23.606;2023-07-02T02:42:59;20.83;;;8.37;;
36377;SDS011;22402;42.746;23.606;2023-07-02T02:45:25;9.57;;;7.37;;
36377;SDS011;22402;42.746;23.606;2023-07-02T02:48:10;8.80;;;6.90;;
36377;SDS011;22402;42.746;23.606;2023-07-02T02:50:36;11.07;;;7.20;;
36377;SDS011;22402;42.746;23.606;2023-07-02T02:53:06;11.10;;;6.57;;
36377;SDS011;22402;42.746;23.606;2023-07-02T02:55:32;9.30;;;6.60;;
36377;SDS011;22402;42.746;23.606;2023-07-02T02:57:58;10.93;;;6.70;;
36377;SDS011;22402;42.746;23.606;2023-07-02T03:00:23;9.47;;;7.00;;
36377;SDS011;22402;42.746;23.606;2023-07-02T03:02:48;17.50;;;7.43;;
36377;SDS011;22402;42.746;23.606;2023-07-02T03:05:14;11.30;;;7.87;;
36377;SDS011;22402;42.746;23.606;2023-07-02T03:07:41;10.60;;;7.60;;
36377;SDS011;22402;42.746;23.606;2023-07-02T03:10:06;10.90;;;8.20;;
36377;SDS011;22402;42.746;23.606;2023-07-02T03:12:34;9.37;;;7.47;;
36377;SDS011;22402;42.746;23.606;2023-07-02T03:14:59;10.83;;;7.50;;
36377;SDS011;22402;42.746;23.606;2023-07-02T03:17:25;10.93;;;8.13;;
36377;SDS011;22402;42.746;23.606;2023-07-02T03:19:51;10.13;;;7.70;;
36377;SDS011;22402;42.746;23.606;2023-07-02T03:22:16;11.00;;;8.10;;
36377;SDS011;22402;42.746;23.606;2023-07-02T03:24:41;13.43;;;6.90;;
36377;SDS011;22402;42.746;23.606;2023-07-02T03:27:07;11.23;;;7.47;;
36377;SDS011;22402;42.746;23.606;2023-07-02T03:29:35;11.67;;;7.60;;
36377;SDS011;22402;42.746;23.606;2023-07-02T03:32:03;12.40;;;7.57;;
36377;SDS011;22402;42.746;23.606;2023-07-02T03:34:29;8.80;;;7.47;;
36377;SDS011;22402;42.746;23.606;2023-07-02T03:36:54;11.70;;;7.70;;
36377;SDS011;22402;42.746;23.606;2023-07-02T03:39:19;10.50;;;7.03;;
36377;SDS011;22402;42.746;23.606;2023-07-02T03:41:45;10.17;;;6.97;;
36377;SDS011;22402;42.746;23.606;2023-07-02T03:44:11;8.57;;;7.10;;
36377;SDS011;22402;42.746;23.606;2023-07-02T03:46:36;11.23;;;7.43;;
36377;SDS011;22402;42.746;23.606;2023-07-02T03:49:02;12.23;;;7.10;;
36377;SDS011;22402;42.746;23.606;2023-07-02T03:51:29;8.83;;;7.10;;
36377;SDS011;22402;42.746;23.606;2023-07-02T03:53:55;10.20;;;6.77;;
36377;SDS011;22402;42.746;23.606;2023-07-02T03:56:20;16.57;;;8.47;;
36377;SDS011;22402;42.746;23.606;2023-07-02T03:58:46;11.40;;;7.20;;
36377;SDS011;22402;42.746;23.606;2023-07-02T04:01:11;11.73;;;7.37;;
36377;SDS011;22402;42.746;23.606;2023-07-02T04:03:37;11.57;;;8.40;;
36377;SDS011;22402;42.746;23.606;2023-07-02T04:06:03;11.33;;;7.50;;
36377;SDS011;22402;42.746;23.606;2023-07-02T04:08:31;9.00;;;7.07;;
36377;SDS011;22402;42.746;23.606;2023-07-02T04:10:56;9.70;;;7.60;;
36377;SDS011;22402;42.746;23.606;2023-07-02T04:13:22;9.57;;;7.20;;
36377;SDS011;22402;42.746;23.606;2023-07-02T04:15:47;9.80;;;7.57;;
36377;SDS011;22402;42.746;23.606;2023-07-02T04:18:13;10.83;;;7.50;;
36377;SDS011;22402;42.746;23.606;2023-07-02T04:20:38;11.13;;;7.17;;
36377;SDS011;22402;42.746;23.606;2023-07-02T04:23:04;10.83;;;7.60;;
36377;SDS011;22402;42.746;23.606;2023-07-02T04:25:30;11.77;;;6.60;;
36377;SDS011;22402;42.746;23.606;2023-07-02T04:27:56;12.90;;;8.23;;
36377;SDS011;22402;42.746;23.606;2023-07-02T04:30:23;10.77;;;7.20;;
36377;SDS011;22402;42.746;23.606;2023-07-02T04:32:49;10.40;;;6.93;;
36377;SDS011;22402;42.746;23.606;2023-07-02T04:35:14;13.57;;;7.33;;
36377;SDS011;22402;42.746;23.606;2023-07-02T04:37:40;10.57;;;7.87;;
36377;SDS011;22402;42.746;23.606;2023-07-02T04:40:06;11.20;;;7.27;;
36377;SDS011;22402;42.746;23.606;2023-07-02T04:42:35;12.80;;;7.43;;
36377;SDS011;22402;42.746;23.606;2023-07-02T04:45:03;11.23;;;7.20;;
36377;SDS011;22402;42.746;23.606;2023-07-02T04:47:29;11.40;;;7.43;;
36377;SDS011;22402;42.746;23.606;2023-07-02T04:49:56;11.23;;;7.13;;
36377;SDS011;22402;42.746;23.606;2023-07-02T04:52:21;10.87;;;6.87;;
36377;SDS011;22402;42.746;23.606;2023-07-02T04:54:47;12.93;;;7.63;;
36377;SDS011;22402;42.746;23.606;2023-07-02T04:57:12;11.60;;;7.30;;
36377;SDS011;22402;42.746;23.606;2023-07-02T04:59:41;10.80;;;7.10;;
36377;SDS011;22402;42.746;23.606;2023-07-02T05:02:07;12.57;;;8.00;;
36377;SDS011;22402;42.746;23.606;2023-07-02T05:04:33;14.43;;;7.80;;
36377;SDS011;22402;42.746;23.606;2023-07-02T05:07:01;12.43;;;7.27;;
36377;SDS011;22402;42.746;23.606;2023-07-02T05:09:26;10.13;;;6.97;;
36377;SDS011;22402;42.746;23.606;2023-07-02T05:11:52;8.90;;;6.83;;
36377;SDS011;22402;42.746;23.606;2023-07-02T05:14:17;11.07;;;7.43;;
36377;SDS011;22402;42.746;23.606;2023-07-02T05:16:42;15.17;;;6.90;;
36377;SDS011;22402;42.746;23.606;2023-07-02T05:19:08;9.60;;;7.67;;
36377;SDS011;22402;42.746;23.606;2023-07-02T05:21:34;8.40;;;6.70;;
36377;SDS011;22402;42.746;23.606;2023-07-02T05:23:59;10.20;;;7.10;;
36377;SDS011;22402;42.746;23.606;2023-07-02T05:26:25;10.70;;;7.43;;
36377;SDS011;22402;42.746;23.606;2023-07-02T05:28:51;10.30;;;6.90;;
36377;SDS011;22402;42.746;23.606;2023-07-02T05:31:17;13.40;;;7.37;;
36377;SDS011;22402;42.746;23.606;2023-07-02T05:33:42;11.80;;;8.00;;
36377;SDS011;22402;42.746;23.606;2023-07-02T05:36:08;8.83;;;6.73;;
36377;SDS011;22402;42.746;23.606;2023-07-02T05:38:33;12.10;;;7.50;;
36377;SDS011;22402;42.746;23.606;2023-07-02T05:40:59;10.60;;;7.87;;
36377;SDS011;22402;42.746;23.606;2023-07-02T05:43:24;9.20;;;7.23;;
36377;SDS011;22402;42.746;23.606;2023-07-02T05:45:50;11.20;;;7.97;;
36377;SDS011;22402;42.746;23.606;2023-07-02T05:48:17;10.20;;;8.07;;
36377;SDS011;22402;42.746;23.606;2023-07-02T05:50:42;12.30;;;8.27;;
36377;SDS011;22402;42.746;23.606;2023-07-02T05:53:08;15.60;;;9.00;;
36377;SDS011;22402;42.746;23.606;2023-07-02T05:55:34;12.00;;;7.80;;
36377;SDS011;22402;42.746;23.606;2023-07-02T05:58:00;12.70;;;8.50;;
36377;SDS011;22402;42.746;23.606;2023-07-02T06:00:27;11.97;;;7.90;;
36377;SDS011;22402;42.746;23.606;2023-07-02T06:02:53;14.00;;;8.50;;
36377;SDS011;22402;42.746;23.606;2023-07-02T06:05:19;11.43;;;9.07;;
36377;SDS011;22402;42.746;23.606;2023-07-02T06:07:44;13.00;;;9.30;;
36377;SDS011;22402;42.746;23.606;2023-07-02T06:10:12;10.83;;;8.57;;
36377;SDS011;22402;42.746;23.606;2023-07-02T06:12:38;10.53;;;8.33;;
36377;SDS011;22402;42.746;23.606;2023-07-02T06:15:03;14.20;;;9.53;;
36377;SDS011;22402;42.746;23.606;2023-07-02T06:17:29;10.77;;;8.50;;
36377;SDS011;22402;42.746;23.606;2023-07-02T06:19:56;12.77;;;9.07;;
36377;SDS011;22402;42.746;23.606;2023-07-02T06:22:22;15.00;;;9.50;;
36377;SDS011;22402;42.746;23.606;2023-07-02T06:24:48;11.53;;;9.10;;
36377;SDS011;22402;42.746;23.606;2023-07-02T06:27:13;17.77;;;8.80;;
36377;SDS011;22402;42.746;23.606;2023-07-02T06:29:39;10.53;;;8.30;;
36377;SDS011;22402;42.746;23.606;2023-07-02T06:32:05;17.23;;;9.20;;
36377;SDS011;22402;42.746;23.606;2023-07-02T06:34:30;13.40;;;9.13;;
36377;SDS011;22402;42.746;23.606;2023-07-02T06:36:56;10.93;;;7.93;;
36377;SDS011;22402;42.746;23.606;2023-07-02T06:39:21;13.27;;;8.67;;
36377;SDS011;22402;42.746;23.606;2023-07-02T06:41:47;13.60;;;8.97;;
36377;SDS011;22402;42.746;23.606;2023-07-02T06:44:12;11.63;;;8.00;;
36377;SDS011;22402;42.746;23.606;2023-07-02T06:46:37;13.13;;;9.00;;
36377;SDS011;22402;42.746;23.606;2023-07-02T06:49:03;11.00;;;8.03;;
36377;SDS011;22402;42.746;23.606;2023-07-02T06:51:28;11.00;;;8.03;;
36377;SDS011;22402;42.746;23.606;2023-07-02T06:53:54;11.63;;;7.50;;
36377;SDS011;22402;42.746;23.606;2023-07-02T06:56:20;11.20;;;7.23;;
36377;SDS011;22402;42.746;23.606;2023-07-02T06:58:45;11.73;;;7.53;;
36377;SDS011;22402;42.746;23.606;2023-07-02T07:01:11;12.80;;;9.00;;
36377;SDS011;22402;42.746;23.606;2023-07-02T07:03:36;9.93;;;7.67;;
36377;SDS011;22402;42.746;23.606;2023-07-02T07:06:02;9.73;;;6.70;;
36377;SDS011;22402;42.746;23.606;2023-07-02T07:08:30;11.80;;;8.00;;
36377;SDS011;22402;42.746;23.606;2023-07-02T07:10:55;12.50;;;7.60;;
36377;SDS011;22402;42.746;23.606;2023-07-02T07:13:21;10.80;;;7.33;;
36377;SDS011;22402;42.746;23.606;2023-07-02T07:15:46;11.20;;;7.07;;
36377;SDS011;22402;42.746;23.606;2023-07-02T07:18:12;11.80;;;7.07;;
36377;SDS011;22402;42.746;23.606;2023-07-02T07:20:38;8.67;;;7.10;;
36377;SDS011;22402;42.746;23.606;2023-07-02T07:23:08;8.10;;;6.57;;
36377;SDS011;22402;42.746;23.606;2023-07-02T07:25:34;9.20;;;6.37;;
36377;SDS011;22402;42.746;23.606;2023-07-02T07:27:59;11.60;;;6.47;;
36377;SDS011;22402;42.746;23.606;2023-07-02T07:30:25;8.87;;;6.63;;
36377;SDS011;22402;42.746;23.606;2023-07-02T07:32:51;9.10;;;6.87;;
36377;SDS011;22402;42.746;23.606;2023-07-02T07:35:17;9.57;;;7.07;;
36377;SDS011;22402;42.746;23.606;2023-07-02T07:37:44;7.27;;;6.27;;
36377;SDS011;22402;42.746;23.606;2023-07-02T07:40:09;9.10;;;5.70;;
36377;SDS011;22402;42.746;23.606;2023-07-02T07:42:35;7.03;;;6.20;;
36377;SDS011;22402;42.746;23.606;2023-07-02T07:45:02;8.83;;;6.27;;
36377;SDS011;22402;42.746;23.606;2023-07-02T07:47:28;8.07;;;5.90;;
36377;SDS011;22402;42.746;23.606;2023-07-02T07:49:53;7.60;;;5.80;;
36377;SDS011;22402;42.746;23.606;2023-07-02T07:52:19;11.10;;;5.67;;
36377;SDS011;22402;42.746;23.606;2023-07-02T07:54:45;7.73;;;5.30;;
36377;SDS011;22402;42.746;23.606;2023-07-02T07:57:10;7.23;;;5.40;;
36377;SDS011;22402;42.746;23.606;2023-07-02T07:59:36;13.50;;;6.13;;
36377;SDS011;22402;42.746;23.606;2023-07-02T08:02:01;10.93;;;6.87;;
36377;SDS011;22402;42.746;23.606;2023-07-02T08:04:27;8.47;;;6.00;;
36377;SDS011;22402;42.746;23.606;2023-07-02T08:06:52;9.40;;;6.07;;
36377;SDS011;22402;42.746;23.606;2023-07-02T08:09:19;6.40;;;5.70;;
36377;SDS011;22402;42.746;23.606;2023-07-02T08:11:45;11.57;;;6.90;;
36377;SDS011;22402;42.746;23.606;2023-07-02T08:14:11;12.23;;;6.90;;
36377;SDS011;22402;42.746;23.606;2023-07-02T08:16:36;8.70;;;5.73;;
36377;SDS011;22402;42.746;23.606;2023-07-02T08:19:02;9.20;;;6.03;;
36377;SDS011;22402;42.746;23.606;2023-07-02T08:21:27;7.27;;;6.00;;
36377;SDS011;22402;42.746;23.606;2023-07-02T08:23:53;8.10;;;5.50;;
36377;SDS011;22402;42.746;23.606;2023-07-02T08:26:18;7.57;;;6.03;;
36377;SDS011;22402;42.746;23.606;2023-07-02T08:28:43;8.07;;;5.90;;
36377;SDS011;22402;42.746;23.606;2023-07-02T08:31:09;9.00;;;5.70;;
36377;SDS011;22402;42.746;23.606;2023-07-02T08:33:35;6.17;;;4.87;;
36377;SDS011;22402;42.746;23.606;2023-07-02T08:36:00;8.10;;;5.70;;
36377;SDS011;22402;42.746;23.606;2023-07-02T08:38:26;8.40;;;5.97;;
36377;SDS011;22402;42.746;23.606;2023-07-02T08:40:51;7.80;;;5.80;;
36377;SDS011;22402;42.746;23.606;2023-07-02T08:43:17;9.60;;;6.57;;
36377;SDS011;22402;42.746;23.606;2023-07-02T08:45:43;11.47;;;5.37;;
36377;SDS011;22402;42.746;23.606;2023-07-02T08:48:10;6.60;;;4.43;;
36377;SDS011;22402;42.746;23.606;2023-07-02T08:50:36;6.70;;;4.70;;
36377;SDS011;22402;42.746;23.606;2023-07-02T08:53:01;7.00;;;4.63;;
36377;SDS011;22402;42.746;23.606;2023-07-02T08:55:27;5.03;;;4.53;;
36377;SDS011;22402;42.746;23.606;2023-07-02T08:57:55;3.90;;;3.47;;
36377;SDS011;22402;42.746;23.606;2023-07-02T09:00:25;5.20;;;4.20;;
36377;SDS011;22402;42.746;23.606;2023-07-02T09:02:51;5.53;;;4.47;;
36377;SDS011;22402;42.746;23.606;2023-07-02T09:05:17;5.77;;;3.93;;
36377;SDS011;22402;42.746;23.606;2023-07-02T09:07:46;6.17;;;4.57;;
36377;SDS011;22402;42.746;23.606;2023-07-02T09:10:24;6.00;;;4.20;;
36377;SDS011;22402;42.746;23.606;2023-07-02T09:13:07;5.50;;;4.30;;
36377;SDS011;22402;42.746;23.606;2023-07-02T09:15:35;4.33;;;3.90;;
36377;SDS011;22402;42.746;23.606;2023-07-02T09:18:01;6.13;;;3.57;;
36377;SDS011;22402;42.746;23.606;2023-07-02T09:20:32;4.30;;;3.30;;
36377;SDS011;22402;42.746;23.606;2023-07-02T09:22:57;3.40;;;2.90;;
36377;SDS011;22402;42.746;23.606;2023-07-02T09:25:33;4.67;;;3.33;;
36377;SDS011;22402;42.746;23.606;2023-07-02T09:27:59;3.80;;;3.40;;
36377;SDS011;22402;42.746;23.606;2023-07-02T09:30:24;4.30;;;3.30;;
36377;SDS011;22402;42.746;23.606;2023-07-02T09:32:50;4.17;;;3.50;;
36377;SDS011;22402;42.746;23.606;2023-07-02T09:35:15;4.10;;;3.37;;
36377;SDS011;22402;42.746;23.606;2023-07-02T09:37:42;5.60;;;3.83;;
36377;SDS011;22402;42.746;23.606;2023-07-02T09:40:08;5.03;;;4.53;;
36377;SDS011;22402;42.746;23.606;2023-07-02T09:42:34;4.47;;;3.80;;
36377;SDS011;22402;42.746;23.606;2023-07-02T09:45:00;8.60;;;3.83;;
36377;SDS011;22402;42.746;23.606;2023-07-02T09:47:27;4.33;;;3.90;;
36377;SDS011;22402;42.746;23.606;2023-07-02T09:49:56;4.97;;;4.20;;
36377;SDS011;22402;42.746;23.606;2023-07-02T09:52:25;4.97;;;4.10;;
36377;SDS011;22402;42.746;23.606;2023-07-02T09:54:52;4.70;;;3.37;;
36377;SDS011;22402;42.746;23.606;2023-07-02T09:57:18;5.03;;;3.70;;
36377;SDS011;22402;42.746;23.606;2023-07-02T09:59:44;4.30;;;3.50;;
36377;SDS011;22402;42.746;23.606;2023-07-02T10:02:09;3.40;;;3.10;;
36377;SDS011;22402;42.746;23.606;2023-07-02T10:04:42;3.70;;;2.83;;
36377;SDS011;22402;42.746;23.606;2023-07-02T10:07:10;4.13;;;3.33;;
36377;SDS011;22402;42.746;23.606;2023-07-02T10:09:37;4.47;;;3.40;;
36377;SDS011;22402;42.746;23.606;2023-07-02T10:12:20;4.33;;;3.93;;
36377;SDS011;22402;42.746;23.606;2023-07-02T10:14:47;4.40;;;3.20;;
36377;SDS011;22402;42.746;23.606;2023-07-02T10:17:24;5.67;;;4.10;;
36377;SDS011;22402;42.746;23.606;2023-07-02T10:19:57;4.23;;;3.73;;
36377;SDS011;22402;42.746;23.606;2023-07-02T10:22:24;3.73;;;3.27;;
36377;SDS011;22402;42.746;23.606;2023-07-02T10:24:50;3.63;;;3.20;;
36377;SDS011;22402;42.746;23.606;2023-07-02T10:27:32;6.50;;;3.57;;
36377;SDS011;22402;42.746;23.606;2023-07-02T10:30:08;4.03;;;3.57;;
36377;SDS011;22402;42.746;23.606;2023-07-02T10:32:35;3.15;;;2.83;;
36377;SDS011;22402;42.746;23.606;2023-07-02T10:35:23;2.90;;;2.67;;
36377;SDS011;22402;42.746;23.606;2023-07-02T10:37:50;3.25;;;3.00;;
36377;SDS011;22402;42.746;23.606;2023-07-02T10:40:15;3.13;;;2.92;;
36377;SDS011;22402;42.746;23.606;2023-07-02T10:42:48;3.40;;;3.10;;
36377;SDS011;22402;42.746;23.606;2023-07-02T10:45:14;3.08;;;2.78;;
36377;SDS011;22402;42.746;23.606;2023-07-02T10:47:40;3.33;;;3.00;;
36377;SDS011;22402;42.746;23.606;2023-07-02T10:52:51;3.45;;;3.17;;
36377;SDS011;22402;42.746;23.606;2023-07-02T10:55:19;4.00;;;3.33;;
36377;SDS011;22402;42.746;23.606;2023-07-02T10:57:45;3.65;;;3.10;;
36377;SDS011;22402;42.746;23.606;2023-07-02T11:00:11;5.05;;;3.78;;
36377;SDS011;22402;42.746;23.606;2023-07-02T11:02:37;4.03;;;3.57;;
36377;SDS011;22402;42.746;23.606;2023-07-02T11:05:04;4.33;;;3.87;;
36377;SDS011;22402;42.746;23.606;2023-07-02T11:07:31;4.00;;;3.60;;
36377;SDS011;22402;42.746;23.606;2023-07-02T11:09:57;5.77;;;3.87;;
36377;SDS011;22402;42.746;23.606;2023-07-02T11:12:29;3.87;;;3.57;;
36377;SDS011;22402;42.746;23.606;2023-07-02T11:14:55;3.60;;;3.30;;
36377;SDS011;22402;42.746;23.606;2023-07-02T11:17:31;3.33;;;3.03;;
36377;SDS011;22402;42.746;23.606;2023-07-02T11:19:57;2.90;;;2.70;;
36377;SDS011;22402;42.746;23.606;2023-07-02T11:22:30;3.30;;;2.97;;
36377;SDS011;22402;42.746;23.606;2023-07-02T11:28:03;2.45;;;2.25;;
36377;SDS011;22402;42.746;23.606;2023-07-02T11:30:29;3.20;;;2.90;;
36377;SDS011;22402;42.746;23.606;2023-07-02T11:32:55;3.92;;;2.92;;
36377;SDS011;22402;42.746;23.606;2023-07-02T11:35:21;2.80;;;2.60;;
36377;SDS011;22402;42.746;23.606;2023-07-02T11:37:48;3.13;;;2.83;;
36377;SDS011;22402;42.746;23.606;2023-07-02T11:40:14;2.88;;;2.53;;
36377;SDS011;22402;42.746;23.606;2023-07-02T11:42:42;3.78;;;3.35;;
36377;SDS011;22402;42.746;23.606;2023-07-02T11:45:09;3.72;;;3.40;;
36377;SDS011;22402;42.746;23.606;2023-07-02T11:47:34;4.30;;;3.10;;
36377;SDS011;22402;42.746;23.606;2023-07-02T11:50:00;3.00;;;2.80;;
36377;SDS011;22402;42.746;23.606;2023-07-02T11:52:25;3.30;;;3.00;;
36377;SDS011;22402;42.746;23.606;2023-07-02T11:54:51;4.15;;;2.95;;
36377;SDS011;22402;42.746;23.606;2023-07-02T11:57:16;2.78;;;2.60;;
36377;SDS011;22402;42.746;23.606;2023-07-02T11:59:42;3.42;;;2.80;;
36377;SDS011;22402;42.746;23.606;2023-07-02T12:02:07;2.83;;;2.58;;
36377;SDS011;22402;42.746;23.606;2023-07-02T12:04:33;3.03;;;2.70;;
36377;SDS011;22402;42.746;23.606;2023-07-02T12:06:59;3.38;;;3.08;;
36377;SDS011;22402;42.746;23.606;2023-07-02T12:09:26;5.47;;;3.90;;
36377;SDS011;22402;42.746;23.606;2023-07-02T12:11:52;12.23;;;4.75;;
36377;SDS011;22402;42.746;23.606;2023-07-02T12:18:54;7.40;;;4.67;;
36377;SDS011;22402;42.746;23.606;2023-07-02T12:21:20;4.83;;;4.33;;
36377;SDS011;22402;42.746;23.606;2023-07-02T12:23:45;6.00;;;5.20;;
36377;SDS011;22402;42.746;23.606;2023-07-02T12:26:11;5.47;;;4.97;;
36377;SDS011;22402;42.746;23.606;2023-07-02T12:28:36;7.53;;;4.57;;
36377;SDS011;22402;42.746;23.606;2023-07-02T12:31:02;6.77;;;5.07;;
36377;SDS011;22402;42.746;23.606;2023-07-02T12:33:27;5.93;;;5.07;;
36377;SDS011;22402;42.746;23.606;2023-07-02T12:35:53;9.17;;;6.10;;
36377;SDS011;22402;42.746;23.606;2023-07-02T12:38:18;7.50;;;6.20;;
36377;SDS011;22402;42.746;23.606;2023-07-02T12:40:44;7.90;;;6.40;;
36377;SDS011;22402;42.746;23.606;2023-07-02T12:43:09;6.67;;;5.50;;
36377;SDS011;22402;42.746;23.606;2023-07-02T12:45:35;6.20;;;5.50;;
36377;SDS011;22402;42.746;23.606;2023-07-02T12:48:00;7.53;;;5.53;;
36377;SDS011;22402;42.746;23.606;2023-07-02T12:50:26;7.77;;;5.70;;
36377;SDS011;22402;42.746;23.606;2023-07-02T12:52:51;7.37;;;5.80;;
36377;SDS011;22402;42.746;23.606;2023-07-02T12:55:17;6.57;;;5.20;;
36377;SDS011;22402;42.746;23.606;2023-07-02T12:57:42;5.40;;;4.80;;
36377;SDS011;22402;42.746;23.606;2023-07-02T13:00:08;6.90;;;5.30;;
36377;SDS011;22402;42.746;23.606;2023-07-02T13:02:34;6.77;;;5.10;;
36377;SDS011;22402;42.746;23.606;2023-07-02T13:05:00;6.07;;;5.10;;
36377;SDS011;22402;42.746;23.606;2023-07-02T13:07:25;7.97;;;5.90;;
36377;SDS011;22402;42.746;23.606;2023-07-02T13:09:50;9.27;;;5.77;;
36377;SDS011;22402;42.746;23.606;2023-07-02T13:12:16;6.73;;;5.80;;
36377;SDS011;22402;42.746;23.606;2023-07-02T13:14:42;7.33;;;6.03;;
36377;SDS011;22402;42.746;23.606;2023-07-02T13:17:07;7.40;;;5.40;;
36377;SDS011;22402;42.746;23.606;2023-07-02T13:19:33;7.37;;;5.80;;
36377;SDS011;22402;42.746;23.606;2023-07-02T13:22:00;8.97;;;6.30;;
36377;SDS011;22402;42.746;23.606;2023-07-02T13:24:28;11.70;;;5.77;;
36377;SDS011;22402;42.746;23.606;2023-07-02T13:26:58;8.07;;;5.60;;
36377;SDS011;22402;42.746;23.606;2023-07-02T13:29:24;6.57;;;5.43;;
36377;SDS011;22402;42.746;23.606;2023-07-02T13:31:49;8.60;;;6.70;;
36377;SDS011;22402;42.746;23.606;2023-07-02T13:34:14;7.80;;;5.57;;
36377;SDS011;22402;42.746;23.606;2023-07-02T13:36:40;8.47;;;6.00;;
36377;SDS011;22402;42.746;23.606;2023-07-02T13:39:05;8.80;;;6.13;;
36377;SDS011;22402;42.746;23.606;2023-07-02T13:41:32;8.77;;;5.43;;
36377;SDS011;22402;42.746;23.606;2023-07-02T13:43:58;8.17;;;5.87;;
36377;SDS011;22402;42.746;23.606;2023-07-02T13:46:24;7.17;;;5.20;;
36377;SDS011;22402;42.746;23.606;2023-07-02T13:48:50;7.10;;;5.43;;
36377;SDS011;22402;42.746;23.606;2023-07-02T13:51:15;12.13;;;5.80;;
36377;SDS011;22402;42.746;23.606;2023-07-02T13:53:40;7.67;;;5.80;;
36377;SDS011;22402;42.746;23.606;2023-07-02T13:56:06;7.60;;;6.07;;
36377;SDS011;22402;42.746;23.606;2023-07-02T13:58:47;7.37;;;5.97;;
36377;SDS011;22402;42.746;23.606;2023-07-02T14:01:25;6.50;;;5.80;;
36377;SDS011;22402;42.746;23.606;2023-07-02T14:03:50;6.73;;;5.83;;
36377;SDS011;22402;42.746;23.606;2023-07-02T14:06:17;8.50;;;6.03;;
36377;SDS011;22402;42.746;23.606;2023-07-02T14:08:43;8.13;;;6.93;;
36377;SDS011;22402;42.746;23.606;2023-07-02T14:11:08;8.90;;;7.40;;
36377;SDS011;22402;42.746;23.606;2023-07-02T14:13:34;10.67;;;7.03;;
36377;SDS011;22402;42.746;23.606;2023-07-02T14:15:59;7.93;;;6.23;;
36377;SDS011;22402;42.746;23.606;2023-07-02T14:18:25;8.60;;;6.57;;
36377;SDS011;22402;42.746;23.606;2023-07-02T14:20:50;9.17;;;6.67;;
36377;SDS011;22402;42.746;23.606;2023-07-02T14:23:16;8.60;;;6.20;;
36377;SDS011;22402;42.746;23.606;2023-07-02T14:25:41;8.57;;;7.30;;
36377;SDS011;22402;42.746;23.606;2023-07-02T14:28:07;8.00;;;6.23;;
36377;SDS011;22402;42.746;23.606;2023-07-02T14:30:33;9.77;;;7.10;;
36377;SDS011;22402;42.746;23.606;2023-07-02T14:32:58;9.50;;;7.13;;
36377;SDS011;22402;42.746;23.606;2023-07-02T14:35:24;9.00;;;6.60;;